Time;durP1;ratioP1;P1;durP2;ratioP2;P2;SDS_P1;SDS_P2;PMS_P1;PMS_P2;Temp;Humidity;BMP_temperature;BMP_pressure;BME280_temperature;BME280_humidity;BME280_pressure;Samples;Min_cycle;Max_cycle;Signal;HPM_P1;HPM_P2
2022/10/01 00:01:40;;;;;;;;;;;;;;;9.82;69.23;98438.69;4920258;29;19922;-66
2022/10/01 00:04:06;;;;;;;;;;;;;;;9.84;68.91;98444.63;4918641;29;19923;-66
2022/10/01 00:06:32;;;;;;;;;;;;;;;9.85;69.16;98439.13;4918868;29;19927;-66
2022/10/01 00:08:59;;;;;;;;;;;;;;;9.87;68.68;98444.19;4920389;29;19922;-67
2022/10/01 00:11:25;;;;;;;;;;;;;;;9.88;68.67;98440.56;4919870;29;20355;-67
2022/10/01 00:13:52;;;;;;;;;;;;;;;9.89;68.63;98442.19;4919724;29;20451;-66
2022/10/01 00:16:20;;;;;;;;;;;;;;;9.91;69.01;98440.97;4920014;29;19927;-67
2022/10/01 00:18:47;;;;;;;;;;;;;;;9.95;68.66;98441.38;4922153;29;19934;-66
2022/10/01 00:21:15;;;;;;;;;;;;;;;9.97;68.56;98433.28;4919908;29;19930;-67
2022/10/01 00:23:42;;;;;;;;;;;;;;;9.97;68.67;98428.00;4920851;29;19927;-67
2022/10/01 00:26:13;;;;;;;;;;;;;;;9.99;68.53;98424.13;4919541;29;19923;-66
2022/10/01 00:28:40;;;;;;;;;;;;;;;10.02;68.60;98422.94;4916603;29;20371;-66
2022/10/01 00:31:07;;;;;;;;;;;;;;;10.04;68.60;98418.25;4917158;29;19923;-66
2022/10/01 00:33:35;;;;;;;;;;;;;;;10.04;68.43;98410.34;4915770;29;19923;-66
2022/10/01 00:36:02;;;;;;;;;;;;;;;10.05;68.36;98417.25;4916031;29;19923;-67
2022/10/01 00:38:29;;;;;;;;;;;;;;;10.06;68.57;98408.31;4915307;29;19928;-66
2022/10/01 00:40:56;;;;;;;;;;;;;;;10.07;68.17;98410.75;4915773;29;19923;-66
2022/10/01 00:43:23;;;;;;;;;;;;;;;10.10;68.43;98406.91;4915695;29;19930;-66
2022/10/01 00:45:50;;;;;;;;;;;;;;;10.12;68.26;98415.44;4915261;29;20017;-66
2022/10/01 00:48:16;;;;;;;;;;;;;;;10.14;68.13;98408.16;4916618;29;19923;-67
2022/10/01 00:50:43;;;;;;;;;;;;;;;10.14;68.32;98410.78;4917089;29;20314;-66
2022/10/01 00:53:11;;;;;;;;;;;;;;;10.15;68.06;98412.41;4916845;29;19923;-66
2022/10/01 00:55:42;;;;;;;;;;;;;;;10.16;68.04;98411.38;4916703;29;20295;-67
2022/10/01 00:58:10;;;;;;;;;;;;;;;10.16;67.98;98406.09;4915863;29;19923;-66
2022/10/01 01:00:38;;;;;;;;;;;;;;;10.17;67.97;98408.56;4919857;29;19927;-67
2022/10/01 01:03:04;;;;;;;;;;;;;;;10.20;67.94;98402.03;4920000;29;19970;-66
2022/10/01 01:05:31;;;;;;;;;;;;;;;10.21;67.93;98395.78;4918998;29;19983;-66
2022/10/01 01:08:01;;;;;;;;;;;;;;;10.24;68.02;98392.72;4919721;29;20062;-67
2022/10/01 01:10:50;;;;;;;;;;;;;;;10.26;67.82;98384.63;4919824;29;19930;-66
2022/10/01 01:13:41;;;;;;;;;;;;;;;10.27;67.88;98376.50;4921448;29;19962;-66
2022/10/01 01:16:34;;;;;;;;;;;;;;;10.30;67.59;98384.03;4920528;29;19927;-67
2022/10/01 01:19:02;;;;;;;;;;;;;;;10.33;67.71;98383.63;4918846;29;19974;-66
2022/10/01 01:21:51;;;;;;;;;;;;;;;10.37;67.84;98381.41;4918375;29;19927;-67
2022/10/01 01:24:24;;;;;;;;;;;;;;;10.41;67.66;98374.72;4917968;29;19927;-66
2022/10/01 01:26:59;;;;;;;;;;;;;;;10.43;67.43;98371.84;4918831;29;19986;-67
2022/10/01 01:29:37;;;;;;;;;;;;;;;10.44;67.37;98374.28;4919290;29;19983;-67
2022/10/01 01:32:07;;;;;;;;;;;;;;;10.45;67.46;98370.66;4919465;29;20287;-66
2022/10/01 01:34:42;;;;;;;;;;;;;;;10.45;67.48;98365.34;4919014;29;20351;-67
2022/10/01 01:37:11;;;;;;;;;;;;;;;10.44;67.08;98358.44;4917345;29;19927;-66
2022/10/01 01:39:40;;;;;;;;;;;;;;;10.47;67.08;98360.66;4919053;29;19930;-67
2022/10/01 01:42:09;;;;;;;;;;;;;;;10.47;67.29;98360.66;4919451;29;19923;-67
2022/10/01 01:44:38;;;;;;;;;;;;;;;10.48;67.02;98356.19;4918835;29;19923;-67
2022/10/01 01:47:06;;;;;;;;;;;;;;;10.48;66.98;98357.00;4917277;29;19923;-67
2022/10/01 01:49:33;;;;;;;;;;;;;;;10.49;66.96;98349.88;4918748;29;19987;-66
2022/10/01 01:52:12;;;;;;;;;;;;;;;10.49;66.65;98340.16;4918888;29;20387;-67
2022/10/01 01:54:39;;;;;;;;;;;;;;;10.51;66.82;98347.88;4918627;29;19933;-67
2022/10/01 01:57:07;;;;;;;;;;;;;;;10.53;66.69;98346.66;4916977;29;20018;-66
2022/10/01 01:59:34;;;;;;;;;;;;;;;10.52;66.68;98331.78;4917435;29;19923;-67
2022/10/01 02:02:01;;;;;;;;;;;;;;;10.53;66.72;98328.16;4917512;29;19923;-66
2022/10/01 02:04:36;;;;;;;;;;;;;;;10.54;66.55;98318.41;4917247;29;20360;-67
2022/10/01 02:07:17;;;;;;;;;;;;;;;10.55;66.48;98325.31;4917897;29;20407;-66
2022/10/01 02:10:02;;;;;;;;;;;;;;;10.57;66.60;98315.31;4918062;29;19929;-67
2022/10/01 02:12:31;;;;;;;;;;;;;;;10.58;66.70;98314.34;4917378;29;19927;-66
2022/10/01 02:15:12;;;;;;;;;;;;;;;10.60;66.54;98317.56;4918275;29;19930;-67
2022/10/01 02:17:49;;;;;;;;;;;;;;;10.62;66.27;98320.84;4917899;29;19974;-66
2022/10/01 02:20:17;;;;;;;;;;;;;;;10.65;66.55;98317.75;4917142;29;19931;-67
2022/10/01 02:23:02;;;;;;;;;;;;;;;10.68;66.10;98311.25;4918096;29;19966;-67
2022/10/01 02:25:33;;;;;;;;;;;;;;;10.70;66.26;98307.41;4917043;29;19931;-66
2022/10/01 02:28:06;;;;;;;;;;;;;;;10.71;66.22;98311.66;4917581;29;19929;-66
2022/10/01 02:30:36;;;;;;;;;;;;;;;10.74;66.01;98308.63;4918291;29;20383;-66
2022/10/01 02:33:04;;;;;;;;;;;;;;;10.78;66.19;98309.84;4918152;29;19926;-66
2022/10/01 02:35:32;;;;;;;;;;;;;;;10.79;66.14;98305.34;4917936;29;19923;-66
2022/10/01 02:38:00;;;;;;;;;;;;;;;10.81;66.06;98292.72;4916371;29;20432;-66
2022/10/01 02:40:29;;;;;;;;;;;;;;;10.82;66.12;98297.81;4917913;29;19923;-66
2022/10/01 02:42:59;;;;;;;;;;;;;;;10.86;66.21;98290.31;4916644;29;20282;-66
2022/10/01 02:45:26;;;;;;;;;;;;;;;10.88;65.94;98286.41;4918192;29;19923;-66
2022/10/01 02:47:56;;;;;;;;;;;;;;;10.90;65.87;98278.28;4917242;29;19974;-66
2022/10/01 02:50:26;;;;;;;;;;;;;;;10.93;65.80;98269.91;4916574;29;19923;-65
2022/10/01 02:52:57;;;;;;;;;;;;;;;10.97;65.87;98278.25;4916425;29;20339;-66
2022/10/01 02:55:27;;;;;;;;;;;;;;;10.97;65.67;98271.13;4916242;29;19929;-66
2022/10/01 02:57:54;;;;;;;;;;;;;;;11.01;65.87;98267.03;4915856;29;19988;-66
2022/10/01 03:00:20;;;;;;;;;;;;;;;11.04;65.42;98261.34;4917728;29;19929;-66
2022/10/01 03:02:47;;;;;;;;;;;;;;;11.07;65.34;98262.78;4900505;29;19927;-66
2022/10/01 03:05:15;;;;;;;;;;;;;;;11.09;65.19;98256.25;4916191;29;19923;-66
2022/10/01 03:07:42;;;;;;;;;;;;;;;11.12;65.45;98255.03;4917349;29;19930;-66
2022/10/01 03:10:09;;;;;;;;;;;;;;;11.14;65.59;98251.16;4916226;29;19934;-67
2022/10/01 03:12:36;;;;;;;;;;;;;;;11.17;65.27;98263.13;4916233;29;19923;-66
2022/10/01 03:15:03;;;;;;;;;;;;;;;11.20;65.20;98259.28;4916249;29;20017;-67
2022/10/01 03:17:30;;;;;;;;;;;;;;;11.24;65.19;98260.47;4916809;29;19923;-67
2022/10/01 03:19:56;;;;;;;;;;;;;;;11.26;65.29;98261.88;4916142;29;19923;-67
2022/10/01 03:22:23;;;;;;;;;;;;;;;11.28;65.28;98257.19;4915408;29;19925;-66
2022/10/01 03:24:50;;;;;;;;;;;;;;;11.29;65.08;98272.03;4917068;29;20395;-66
2022/10/01 03:27:17;;;;;;;;;;;;;;;11.28;65.23;98278.38;4915332;29;20442;-67
2022/10/01 03:29:43;;;;;;;;;;;;;;;11.27;65.32;98276.75;4917089;29;19923;-66
2022/10/01 03:32:10;;;;;;;;;;;;;;;11.29;65.60;98268.59;4915917;29;19930;-66
2022/10/01 03:34:37;;;;;;;;;;;;;;;11.29;65.98;98271.22;4915591;29;20302;-66
2022/10/01 03:37:04;;;;;;;;;;;;;;;11.28;66.04;98265.13;4915219;29;20302;-67
2022/10/01 03:39:31;;;;;;;;;;;;;;;11.27;66.25;98268.00;4915979;29;19975;-66
2022/10/01 03:41:57;;;;;;;;;;;;;;;11.27;66.32;98258.22;4915780;29;19930;-66
2022/10/01 03:44:24;;;;;;;;;;;;;;;11.24;66.53;98253.34;4915377;29;19965;-67
2022/10/01 03:46:50;;;;;;;;;;;;;;;11.22;66.32;98251.91;4914792;29;19923;-66
2022/10/01 03:49:17;;;;;;;;;;;;;;;11.21;67.01;98247.66;4915406;29;19961;-66
2022/10/01 03:51:44;;;;;;;;;;;;;;;11.20;67.22;98248.69;4915465;29;19929;-66
2022/10/01 03:54:10;;;;;;;;;;;;;;;11.16;67.20;98245.66;4915396;29;19922;-66
2022/10/01 03:56:39;;;;;;;;;;;;;;;11.13;67.49;98238.13;4914964;29;19923;-66
2022/10/01 03:59:06;;;;;;;;;;;;;;;11.10;67.75;98243.81;4916593;29;19959;-66
2022/10/01 04:01:32;;;;;;;;;;;;;;;11.07;67.76;98246.91;5363387;23;19930;-66
2022/10/01 04:03:59;;;;;;;;;;;;;;;11.03;68.17;98246.50;4916454;29;20358;-65
2022/10/01 04:06:26;;;;;;;;;;;;;;;11.03;68.46;98243.06;4914663;29;19927;-65
2022/10/01 04:08:52;;;;;;;;;;;;;;;11.01;68.34;98239.78;4915656;29;19930;-65
2022/10/01 04:11:19;;;;;;;;;;;;;;;10.99;68.80;98247.13;4916397;29;19946;-66
2022/10/01 04:13:45;;;;;;;;;;;;;;;10.98;68.99;98253.44;4916478;29;20418;-66
2022/10/01 04:16:12;;;;;;;;;;;;;;;10.98;68.95;98240.19;4915349;29;19946;-66
2022/10/01 04:18:38;;;;;;;;;;;;;;;10.96;69.18;98237.78;4915319;29;19923;-65
2022/10/01 04:21:05;;;;;;;;;;;;;;;10.96;69.43;98231.69;4915307;29;20367;-66
2022/10/01 04:23:31;;;;;;;;;;;;;;;10.96;69.53;98224.56;4916508;29;19923;-66
2022/10/01 04:25:59;;;;;;;;;;;;;;;10.96;69.82;98224.56;4916488;29;19923;-66
2022/10/01 04:28:26;;;;;;;;;;;;;;;10.95;69.90;98227.41;4915777;29;19922;-66
2022/10/01 04:31:23;;;;;;;;;;;;;;;10.91;70.10;98222.53;4916324;29;19923;-66
2022/10/01 04:33:39;;;;;;;;;;;;;;;10.89;70.19;98226.41;4918231;29;19969;-65
2022/10/01 04:36:06;;;;;;;;;;;;;;;10.85;70.14;98220.72;4920117;29;20382;-66
2022/10/01 04:38:33;;;;;;;;;;;;;;;10.84;70.42;98211.16;4920301;29;19923;-65
2022/10/01 04:40:59;;;;;;;;;;;;;;;10.84;70.68;98211.16;4918945;29;19960;-67
2022/10/01 04:43:26;;;;;;;;;;;;;;;10.83;70.89;98216.66;4920057;29;19923;-66
2022/10/01 04:45:52;;;;;;;;;;;;;;;10.82;71.11;98215.88;4919969;29;19923;-66
2022/10/01 04:48:18;;;;;;;;;;;;;;;10.82;71.15;98209.78;4919580;29;19987;-66
2022/10/01 04:50:45;;;;;;;;;;;;;;;10.81;71.46;98211.56;4918836;29;19934;-67
2022/10/01 04:53:11;;;;;;;;;;;;;;;10.80;71.41;98203.88;4919978;29;20109;-66
2022/10/01 04:55:38;;;;;;;;;;;;;;;10.79;71.38;98203.06;4918672;29;19946;-66
2022/10/01 04:58:04;;;;;;;;;;;;;;;10.80;71.84;98194.09;4918269;29;19966;-67
2022/10/01 05:00:31;;;;;;;;;;;;;;;10.82;71.70;98191.25;4920124;29;19923;-67
2022/10/01 05:02:57;;;;;;;;;;;;;;;10.83;71.71;98193.69;4918518;29;19923;-66
2022/10/01 05:05:26;;;;;;;;;;;;;;;10.84;71.75;98175.97;4919988;29;19927;-66
2022/10/01 05:07:52;;;;;;;;;;;;;;;10.83;71.94;98180.47;4919164;29;20009;-68
2022/10/01 05:10:20;;;;;;;;;;;;;;;10.82;71.92;98176.19;4918391;29;19982;-65
2022/10/01 05:12:47;;;;;;;;;;;;;;;10.82;71.93;98176.19;4919553;29;19923;-66
2022/10/01 05:15:14;;;;;;;;;;;;;;;10.82;71.98;98178.03;4920932;29;19978;-66
2022/10/01 05:17:41;;;;;;;;;;;;;;;10.81;72.05;98171.09;4919195;29;20295;-67
2022/10/01 05:20:14;;;;;;;;;;;;;;;10.82;72.46;98183.31;4919533;29;20343;-66
2022/10/01 05:22:40;;;;;;;;;;;;;;;10.82;72.33;98191.25;4919322;29;19923;-67
2022/10/01 05:25:07;;;;;;;;;;;;;;;10.82;72.72;98191.25;4919386;29;19927;-67
2022/10/01 05:27:39;;;;;;;;;;;;;;;10.83;72.60;98206.09;4917599;29;19926;-66
2022/10/01 05:30:07;;;;;;;;;;;;;;;10.84;72.74;98203.22;4918157;29;20335;-67
2022/10/01 05:32:34;;;;;;;;;;;;;;;10.86;72.70;98209.13;4918015;29;19923;-65
2022/10/01 05:35:00;;;;;;;;;;;;;;;10.87;72.69;98199.38;4919158;29;19923;-66
2022/10/01 05:37:27;;;;;;;;;;;;;;;10.87;72.99;98200.19;4918644;29;20029;-67
2022/10/01 05:39:53;;;;;;;;;;;;;;;10.89;73.34;98199.97;4917806;29;19930;-65
2022/10/01 05:42:20;;;;;;;;;;;;;;;10.89;73.46;98203.41;4918182;29;19927;-67
2022/10/01 05:44:47;;;;;;;;;;;;;;;10.91;73.46;98195.28;4916964;29;19923;-67
2022/10/01 05:47:15;;;;;;;;;;;;;;;10.91;73.54;98195.28;4918468;29;20021;-66
2022/10/01 05:49:43;;;;;;;;;;;;;;;10.90;73.48;98202.41;4918916;29;20118;-67
2022/10/01 05:52:10;;;;;;;;;;;;;;;10.90;73.63;98202.41;4917548;29;19990;-67
2022/10/01 05:54:36;;;;;;;;;;;;;;;10.90;73.62;98197.13;4917820;29;20022;-67
2022/10/01 05:57:04;;;;;;;;;;;;;;;10.88;73.54;98201.00;4917058;29;20322;-67
2022/10/01 05:59:30;;;;;;;;;;;;;;;10.86;73.66;98200.41;4917561;29;20014;-65
2022/10/01 06:01:57;;;;;;;;;;;;;;;10.85;74.22;98196.09;4917562;29;20362;-66
2022/10/01 06:04:24;;;;;;;;;;;;;;;10.85;74.62;98188.97;4917186;29;19923;-66
2022/10/01 06:06:52;;;;;;;;;;;;;;;10.86;75.03;98180.06;4918219;29;19923;-66
2022/10/01 06:09:18;;;;;;;;;;;;;;;10.87;74.92;98179.03;4918400;29;20339;-66
2022/10/01 06:11:46;;;;;;;;;;;;;;;10.88;75.20;98182.47;4918316;29;19990;-66
2022/10/01 06:14:13;;;;;;;;;;;;;;;10.89;74.88;98176.16;4918396;29;19923;-66
2022/10/01 06:16:40;;;;;;;;;;;;;;;10.90;75.07;98177.81;4917766;29;20404;-66
2022/10/01 06:19:06;;;;;;;;;;;;;;;10.89;74.79;98168.22;4917020;29;19931;-67
2022/10/01 06:21:33;;;;;;;;;;;;;;;10.89;75.01;98173.50;4918320;29;19923;-66
2022/10/01 06:24:00;;;;;;;;;;;;;;;10.88;74.82;98175.34;4918461;29;20335;-67
2022/10/01 06:26:27;;;;;;;;;;;;;;;10.86;74.89;98171.31;4917836;29;19926;-66
2022/10/01 06:28:53;;;;;;;;;;;;;;;10.84;75.24;98178.63;4917105;29;19923;-66
2022/10/01 06:31:20;;;;;;;;;;;;;;;10.82;75.41;98172.75;4916892;29;20040;-66
2022/10/01 06:33:47;;;;;;;;;;;;;;;10.84;75.29;98175.97;4917197;29;19962;-67
2022/10/01 06:36:13;;;;;;;;;;;;;;;10.84;75.47;98163.56;4916486;29;20384;-67
2022/10/01 06:38:41;;;;;;;;;;;;;;;10.84;75.75;98179.44;4916946;29;19938;-66
2022/10/01 06:41:08;;;;;;;;;;;;;;;10.84;75.59;98183.91;4916788;29;19930;-66
2022/10/01 06:43:35;;;;;;;;;;;;;;;10.80;75.94;98180.88;4916702;29;19926;-65
2022/10/01 06:46:02;;;;;;;;;;;;;;;10.77;75.91;98183.94;4917018;29;20287;-66
2022/10/01 06:48:30;;;;;;;;;;;;;;;10.76;76.13;98200.81;4917665;29;19923;-66
2022/10/01 06:50:57;;;;;;;;;;;;;;;10.76;76.27;98190.25;4900955;29;19934;-66
2022/10/01 06:53:25;;;;;;;;;;;;;;;10.76;76.79;98192.88;4916727;29;20022;-66
2022/10/01 06:55:52;;;;;;;;;;;;;;;10.78;76.95;98190.88;4916602;29;19958;-66
2022/10/01 06:58:20;;;;;;;;;;;;;;;10.83;77.22;98208.75;4916049;29;20354;-67
2022/10/01 07:00:47;;;;;;;;;;;;;;;10.83;77.42;98204.25;4916660;29;19923;-66
2022/10/01 07:03:17;;;;;;;;;;;;;;;10.84;77.19;98184.72;4901153;29;19923;-66
2022/10/01 07:05:44;;;;;;;;;;;;;;;10.86;77.16;98166.84;4916305;29;19930;-66
2022/10/01 07:08:10;;;;;;;;;;;;;;;10.89;77.41;98153.16;4915849;29;19926;-67
2022/10/01 07:10:38;;;;;;;;;;;;;;;10.91;77.10;98140.56;4917689;29;20013;-66
2022/10/01 07:13:06;;;;;;;;;;;;;;;10.93;77.49;98137.69;4917490;29;19923;-66
2022/10/01 07:15:33;;;;;;;;;;;;;;;10.94;77.17;98134.06;4916272;29;19966;-66
2022/10/01 07:18:00;;;;;;;;;;;;;;;10.96;77.20;98147.06;4917005;29;20306;-66
2022/10/01 07:20:26;;;;;;;;;;;;;;;10.99;77.27;98170.44;4916311;29;19930;-68
2022/10/01 07:22:57;;;;;;;;;;;;;;;10.99;77.19;98170.44;4916299;29;19923;-67
2022/10/01 07:25:24;;;;;;;;;;;;;;;10.96;77.36;98158.44;4915853;29;20277;-67
2022/10/01 07:27:58;;;;;;;;;;;;;;;10.99;77.63;98173.09;4915562;29;19923;-67
2022/10/01 07:30:25;;;;;;;;;;;;;;;11.01;77.17;98189.53;4916239;29;20030;-67
2022/10/01 07:32:53;;;;;;;;;;;;;;;11.02;77.35;98189.34;4915983;29;19923;-67
2022/10/01 07:35:20;;;;;;;;;;;;;;;11.02;77.47;98186.72;4917000;29;19931;-67
2022/10/01 07:37:47;;;;;;;;;;;;;;;11.03;77.34;98198.91;4915595;29;19923;-67
2022/10/01 07:40:17;;;;;;;;;;;;;;;11.05;77.55;98199.50;4916963;29;20022;-67
2022/10/01 07:42:53;;;;;;;;;;;;;;;11.06;77.23;98200.28;4915610;29;19929;-67
2022/10/01 07:45:21;;;;;;;;;;;;;;;11.05;77.50;98185.44;4916047;29;20021;-67
2022/10/01 07:47:58;;;;;;;;;;;;;;;11.07;77.75;98196.66;4915214;29;19926;-66
2022/10/01 07:50:25;;;;;;;;;;;;;;;11.08;77.56;98190.34;4915569;29;20375;-66
2022/10/01 07:52:52;;;;;;;;;;;;;;;11.07;77.42;98194.81;4916662;29;20450;-67
2022/10/01 07:55:19;;;;;;;;;;;;;;;11.09;77.80;98189.31;4917052;29;19923;-67
2022/10/01 07:57:50;;;;;;;;;;;;;;;11.08;77.87;98177.09;4915006;29;19927;-66
2022/10/01 08:00:16;;;;;;;;;;;;;;;11.12;77.95;98171.19;4915586;29;19923;-66
2022/10/01 08:02:47;;;;;;;;;;;;;;;11.13;77.70;98169.34;4915271;29;19923;-67
2022/10/01 08:05:16;;;;;;;;;;;;;;;11.10;78.53;98141.50;4915322;29;20375;-65
2022/10/01 08:07:44;;;;;;;;;;;;;;;11.07;78.11;98115.47;4915796;29;19930;-64
2022/10/01 08:10:10;;;;;;;;;;;;;;;11.10;78.50;98112.41;4916830;29;19933;-65
2022/10/01 08:12:37;;;;;;;;;;;;;;;11.13;78.89;98145.53;4915122;29;20280;-67
2022/10/01 08:15:08;;;;;;;;;;;;;;;11.16;79.14;98156.50;4916590;29;19923;-66
2022/10/01 08:17:36;;;;;;;;;;;;;;;11.19;78.91;98146.53;4916106;29;19923;-66
2022/10/01 08:20:03;;;;;;;;;;;;;;;11.22;78.88;98154.84;4915439;29;19930;-65
2022/10/01 08:22:30;;;;;;;;;;;;;;;11.25;78.87;98169.50;4916589;29;19946;-64
2022/10/01 08:24:56;;;;;;;;;;;;;;;11.31;78.79;98177.41;4916376;29;19945;-66
2022/10/01 08:27:24;;;;;;;;;;;;;;;11.38;78.55;98182.63;4914765;29;19930;-66
2022/10/01 08:29:50;;;;;;;;;;;;;;;11.48;78.35;98193.59;4915268;29;20306;-66
2022/10/01 08:32:17;;;;;;;;;;;;;;;11.52;77.94;98183.38;4916288;29;19971;-66
2022/10/01 08:34:43;;;;;;;;;;;;;;;11.58;77.88;98187.81;4916175;29;19923;-66
2022/10/01 08:37:10;;;;;;;;;;;;;;;11.66;77.72;98193.66;4915724;29;19927;-67
2022/10/01 08:39:36;;;;;;;;;;;;;;;11.72;77.73;98181.41;4915246;29;19923;-67
2022/10/01 08:42:07;;;;;;;;;;;;;;;11.78;77.61;98154.06;4916122;29;19923;-67
2022/10/01 08:44:42;;;;;;;;;;;;;;;11.81;77.13;98161.56;4914959;29;19923;-65
2022/10/01 08:47:32;;;;;;;;;;;;;;;11.82;77.43;98163.19;4915664;29;19923;-65
2022/10/01 08:50:02;;;;;;;;;;;;;;;11.84;77.07;98160.38;4906076;29;20413;-67
2022/10/01 08:52:31;;;;;;;;;;;;;;;11.87;77.15;98159.91;4916044;29;19930;-67
2022/10/01 08:55:06;;;;;;;;;;;;;;;11.85;77.13;98162.00;4916004;29;19954;-65
2022/10/01 08:57:41;;;;;;;;;;;;;;;11.82;77.23;98170.34;4915446;29;19976;-67
2022/10/01 09:00:12;;;;;;;;;;;;;;;11.80;76.95;98181.16;4915090;29;19927;-68
2022/10/01 09:02:40;;;;;;;;;;;;;;;11.81;77.08;98181.97;4914770;29;19923;-67
2022/10/01 09:05:16;;;;;;;;;;;;;;;11.80;77.29;98178.50;4915156;29;20379;-67
2022/10/01 09:07:56;;;;;;;;;;;;;;;11.85;77.15;98185.81;4915473;29;20447;-67
2022/10/01 09:10:31;;;;;;;;;;;;;;;11.90;77.32;98184.13;4914821;29;20375;-67
2022/10/01 09:13:03;;;;;;;;;;;;;;;11.96;77.23;98194.88;4914663;29;19926;-66
2022/10/01 09:15:44;;;;;;;;;;;;;;;11.98;77.21;98191.00;4915946;29;19955;-66
2022/10/01 09:18:31;;;;;;;;;;;;;;;12.03;77.07;98199.13;4915240;29;20480;-67
2022/10/01 09:20:58;;;;;;;;;;;;;;;12.08;77.32;98193.16;4888696;29;20355;-66
2022/10/01 09:23:28;;;;;;;;;;;;;;;12.13;77.17;98202.09;4919359;29;20052;-66
2022/10/01 09:25:58;;;;;;;;;;;;;;;12.23;77.37;98200.78;4919143;29;19954;-66
2022/10/01 09:28:30;;;;;;;;;;;;;;;12.30;77.03;98194.41;4917326;29;19930;-66
2022/10/01 09:31:05;;;;;;;;;;;;;;;12.33;77.05;98193.97;4918096;29;19930;-66
2022/10/01 09:33:35;;;;;;;;;;;;;;;12.36;77.48;98187.41;4918965;29;20017;-67
2022/10/01 09:36:09;;;;;;;;;;;;;;;12.35;77.04;98196.41;4917975;29;19927;-66
2022/10/01 09:38:40;;;;;;;;;;;;;;;12.35;77.45;98191.91;4919288;29;20450;-66
2022/10/01 09:41:09;;;;;;;;;;;;;;;12.35;77.57;98186.59;4918007;29;19934;-66
2022/10/01 09:43:37;;;;;;;;;;;;;;;12.34;77.20;98205.38;4917634;29;20311;-66
2022/10/01 09:46:12;;;;;;;;;;;;;;;12.34;77.44;98190.28;4917765;29;19930;-67
2022/10/01 09:48:57;;;;;;;;;;;;;;;12.36;78.05;98206.78;4917752;29;19923;-66
2022/10/01 09:51:27;;;;;;;;;;;;;;;12.42;78.08;98189.19;4918794;29;20390;-67
2022/10/01 09:54:23;;;;;;;;;;;;;;;12.44;78.32;98199.56;4918725;29;19923;-67
2022/10/01 09:56:57;;;;;;;;;;;;;;;12.49;77.96;98191.75;4908578;29;19923;-67
2022/10/01 09:59:30;;;;;;;;;;;;;;;12.56;78.24;98184.56;4918739;29;19923;-67
2022/10/01 10:01:59;;;;;;;;;;;;;;;12.74;77.88;98181.13;4918362;29;19927;-67
2022/10/01 10:04:26;;;;;;;;;;;;;;;12.83;77.12;98183.25;4917492;29;20402;-67
2022/10/01 10:07:04;;;;;;;;;;;;;;;12.88;77.14;98191.34;4918149;29;19927;-67
2022/10/01 10:09:31;;;;;;;;;;;;;;;12.99;77.22;98192.44;4918444;29;20017;-67
2022/10/01 10:11:58;;;;;;;;;;;;;;;13.10;77.08;98189.03;4918607;29;20398;-67
2022/10/01 10:14:32;;;;;;;;;;;;;;;13.22;76.36;98196.22;4917115;29;20352;-67
2022/10/01 10:17:25;;;;;;;;;;;;;;;13.28;76.28;98198.03;4917461;29;19959;-67
2022/10/01 10:19:52;;;;;;;;;;;;;;;13.37;76.00;98194.03;4915765;29;19923;-67
2022/10/01 10:22:25;;;;;;;;;;;;;;;13.44;75.73;98202.72;4918138;29;20303;-67
2022/10/01 10:24:53;;;;;;;;;;;;;;;13.48;75.28;98206.53;4918159;29;20353;-67
2022/10/01 10:27:24;;;;;;;;;;;;;;;13.52;75.12;98198.94;4916537;29;20260;-67
2022/10/01 10:29:59;;;;;;;;;;;;;;;13.57;75.42;98185.78;4918293;29;19923;-67
2022/10/01 10:32:26;;;;;;;;;;;;;;;13.61;75.24;98195.72;4918220;29;19926;-67
2022/10/01 10:34:55;;;;;;;;;;;;;;;13.69;74.98;98199.09;4916990;29;19923;-67
2022/10/01 10:37:29;;;;;;;;;;;;;;;13.74;74.59;98202.69;4916712;29;20382;-67
2022/10/01 10:39:57;;;;;;;;;;;;;;;13.79;74.73;98200.16;4917925;29;19923;-67
2022/10/01 10:42:24;;;;;;;;;;;;;;;13.79;74.40;98199.34;4917797;29;20002;-67
2022/10/01 10:44:51;;;;;;;;;;;;;;;13.77;74.29;98212.06;4917926;29;19974;-67
2022/10/01 10:47:19;;;;;;;;;;;;;;;13.79;74.51;98215.28;4917326;29;20298;-67
2022/10/01 10:49:55;;;;;;;;;;;;;;;13.84;74.20;98220.75;4916634;29;19951;-67
2022/10/01 10:52:28;;;;;;;;;;;;;;;13.86;74.40;98222.13;4917729;29;20002;-66
2022/10/01 10:54:56;;;;;;;;;;;;;;;13.86;74.06;98222.13;4916401;29;20344;-67
2022/10/01 10:57:28;;;;;;;;;;;;;;;13.92;74.34;98244.31;4915786;29;19923;-66
2022/10/01 10:59:55;;;;;;;;;;;;;;;13.83;73.82;98240.34;4917552;29;19923;-66
2022/10/01 11:02:24;;;;;;;;;;;;;;;13.77;74.33;98239.41;4916218;29;19979;-67
2022/10/01 11:04:52;;;;;;;;;;;;;;;13.77;74.38;98242.06;4916188;29;19923;-66
2022/10/01 11:07:20;;;;;;;;;;;;;;;13.73;74.50;98253.38;4915838;29;19923;-66
2022/10/01 11:09:59;;;;;;;;;;;;;;;13.77;74.59;98259.88;4916253;29;19983;-67
2022/10/01 11:12:56;;;;;;;;;;;;;;;13.73;74.64;98240.09;4916168;29;19930;-67
2022/10/01 11:15:42;;;;;;;;;;;;;;;13.71;74.95;98258.91;4900525;29;19923;-67
2022/10/01 11:18:09;;;;;;;;;;;;;;;13.69;75.29;98247.72;4915783;29;19923;-67
2022/10/01 11:20:38;;;;;;;;;;;;;;;13.65;75.02;98257.16;4916360;29;19931;-67
2022/10/01 11:23:15;;;;;;;;;;;;;;;13.66;75.27;98282.69;4915832;29;19923;-67
2022/10/01 11:25:48;;;;;;;;;;;;;;;13.62;75.01;98265.56;4915924;29;20337;-67
2022/10/01 11:28:27;;;;;;;;;;;;;;;13.58;75.14;98264.41;4916601;29;19971;-67
2022/10/01 11:31:06;;;;;;;;;;;;;;;13.56;75.18;98275.25;4917063;29;20394;-67
2022/10/01 11:33:43;;;;;;;;;;;;;;;13.65;75.45;98278.41;4915773;29;19974;-67
2022/10/01 11:36:16;;;;;;;;;;;;;;;13.81;75.08;98277.78;4915134;29;20346;-68
2022/10/01 11:38:49;;;;;;;;;;;;;;;13.76;75.45;98287.47;4915655;29;19922;-67
2022/10/01 11:41:17;;;;;;;;;;;;;;;13.73;75.31;98291.38;4916998;29;19930;-68
2022/10/01 11:43:50;;;;;;;;;;;;;;;13.81;75.51;98303.53;4914909;29;19923;-67
2022/10/01 11:46:30;;;;;;;;;;;;;;;13.88;75.58;98299.75;4914797;29;19926;-68
2022/10/01 11:49:02;;;;;;;;;;;;;;;13.92;75.23;98304.59;4915818;29;19923;-67
2022/10/01 11:51:33;;;;;;;;;;;;;;;13.90;75.23;98312.00;4915572;29;20298;-67
2022/10/01 11:54:04;;;;;;;;;;;;;;;13.93;75.50;98300.94;4915470;29;19970;-67
2022/10/01 11:59:23;;;;;;;;;;;;;;;13.94;75.74;98306.00;4915659;29;19951;-68
2022/10/01 12:01:56;;;;;;;;;;;;;;;13.99;75.60;98300.81;4915385;29;19926;-67
2022/10/01 12:04:25;;;;;;;;;;;;;;;13.97;75.63;98294.94;4899728;29;20014;-67
2022/10/01 12:07:04;;;;;;;;;;;;;;;13.94;75.55;98302.53;4914634;29;19927;-67
2022/10/01 12:09:31;;;;;;;;;;;;;;;13.92;76.35;98300.13;4915372;29;19931;-68
2022/10/01 12:12:00;;;;;;;;;;;;;;;13.92;76.11;98296.63;4915336;29;20022;-67
2022/10/01 12:14:40;;;;;;;;;;;;;;;13.94;76.12;98303.34;4915123;29;19923;-67
2022/10/01 12:17:15;;;;;;;;;;;;;;;14.00;76.19;98298.97;4915780;29;19987;-67
2022/10/01 12:19:46;;;;;;;;;;;;;;;14.06;76.03;98298.06;4916600;29;19927;-67
2022/10/01 12:22:14;;;;;;;;;;;;;;;14.11;75.98;98293.69;4915425;29;20335;-67
2022/10/01 12:24:42;;;;;;;;;;;;;;;14.18;76.04;98304.22;4915104;29;19938;-67
2022/10/01 12:27:28;;;;;;;;;;;;;;;14.17;76.33;98302.63;4914563;29;19927;-67
2022/10/01 12:30:06;;;;;;;;;;;;;;;14.15;76.19;98306.53;4916170;29;20391;-67
2022/10/01 12:32:42;;;;;;;;;;;;;;;14.09;76.26;98310.91;4915368;29;19923;-67
2022/10/01 12:35:22;;;;;;;;;;;;;;;14.01;76.47;98305.94;4915068;29;19927;-67
2022/10/01 12:38:08;;;;;;;;;;;;;;;13.96;76.55;98290.66;4914747;29;19923;-67
2022/10/01 12:40:53;;;;;;;;;;;;;;;14.00;77.00;98297.16;4915146;29;19923;-67
2022/10/01 12:43:34;;;;;;;;;;;;;;;14.02;77.03;98287.09;4915035;29;19930;-67
2022/10/01 12:46:24;;;;;;;;;;;;;;;13.99;76.86;98279.56;4916158;29;19926;-67
2022/10/01 12:48:58;;;;;;;;;;;;;;;13.96;77.09;98284.50;4914938;29;20295;-67
2022/10/01 12:51:35;;;;;;;;;;;;;;;13.97;77.03;98281.66;4915117;29;19923;-67
2022/10/01 12:54:21;;;;;;;;;;;;;;;13.98;77.25;98293.09;4917126;29;19931;-67
2022/10/01 12:56:53;;;;;;;;;;;;;;;14.01;77.13;98300.59;4902420;29;19930;-66
2022/10/01 12:59:29;;;;;;;;;;;;;;;14.03;77.02;98306.50;4919853;29;19923;-66
2022/10/01 13:02:01;;;;;;;;;;;;;;;14.03;77.35;98309.16;4918504;29;19979;-67
2022/10/01 13:04:48;;;;;;;;;;;;;;;14.01;77.38;98305.94;4918692;29;19923;-67
2022/10/01 13:07:30;;;;;;;;;;;;;;;13.97;77.36;98307.41;4917772;29;19930;-67